sensor_id;sensor_type;location;lat;lon;timestamp;pressure;altitude;pressure_sealevel;temperature;humidity
75008;BME280;63554;48.940;12.050;2022-11-21T00:00:31;96444.28;;;3.00;91.56
75008;BME280;63554;48.940;12.050;2022-11-21T00:04:34;96445.56;;;3.04;90.69
75008;BME280;63554;48.940;12.050;2022-11-21T00:08:37;96450.31;;;3.09;90.97
75008;BME280;63554;48.940;12.050;2022-11-21T00:12:39;96462.25;;;3.13;91.32
75008;BME280;63554;48.940;12.050;2022-11-21T00:16:44;96455.06;;;3.13;91.26
75008;BME280;63554;48.940;12.050;2022-11-21T00:20:47;96445.41;;;3.12;90.65
75008;BME280;63554;48.940;12.050;2022-11-21T00:24:49;96433.88;;;3.12;91.17
75008;BME280;63554;48.940;12.050;2022-11-21T00:28:54;96451.56;;;3.13;91.09
75008;BME280;63554;48.940;12.050;2022-11-21T00:32:58;96432.03;;;3.12;91.51
75008;BME280;63554;48.940;12.050;2022-11-21T00:37:01;96428.31;;;3.13;91.47
75008;BME280;63554;48.940;12.050;2022-11-21T00:41:04;96439.88;;;3.14;91.46
75008;BME280;63554;48.940;12.050;2022-11-21T00:45:08;96442.53;;;3.14;91.42
75008;BME280;63554;48.940;12.050;2022-11-21T00:49:12;96444.19;;;3.15;91.77
75008;BME280;63554;48.940;12.050;2022-11-21T00:53:15;96451.63;;;3.20;91.48
75008;BME280;63554;48.940;12.050;2022-11-21T00:57:17;96447.47;;;3.17;91.41
75008;BME280;63554;48.940;12.050;2022-11-21T01:01:20;96465.19;;;3.18;91.04
75008;BME280;63554;48.940;12.050;2022-11-21T01:05:24;96456.38;;;3.24;91.18
75008;BME280;63554;48.940;12.050;2022-11-21T01:09:27;96453.69;;;3.24;90.92
75008;BME280;63554;48.940;12.050;2022-11-21T01:13:30;96443.81;;;3.25;91.19
75008;BME280;63554;48.940;12.050;2022-11-21T01:17:33;96447.94;;;3.27;90.80
75008;BME280;63554;48.940;12.050;2022-11-21T01:21:37;96442.59;;;3.27;90.71
75008;BME280;63554;48.940;12.050;2022-11-21T01:25:40;96445.72;;;3.31;90.53
75008;BME280;63554;48.940;12.050;2022-11-21T01:29:42;96442.84;;;3.32;90.40
75008;BME280;63554;48.940;12.050;2022-11-21T01:33:46;96447.56;;;3.30;90.06
75008;BME280;63554;48.940;12.050;2022-11-21T01:37:50;96463.00;;;3.35;90.66
75008;BME280;63554;48.940;12.050;2022-11-21T01:41:53;96453.97;;;3.36;90.36
75008;BME280;63554;48.940;12.050;2022-11-21T01:45:57;96436.09;;;3.36;90.33
75008;BME280;63554;48.940;12.050;2022-11-21T01:50:00;96431.78;;;3.35;90.06
75008;BME280;63554;48.940;12.050;2022-11-21T01:54:08;96443.31;;;3.43;89.34
75008;BME280;63554;48.940;12.050;2022-11-21T01:58:13;96434.31;;;3.50;88.63
75008;BME280;63554;48.940;12.050;2022-11-21T02:02:19;96425.47;;;3.50;88.51
75008;BME280;63554;48.940;12.050;2022-11-21T02:06:23;96424.84;;;3.48;88.76
75008;BME280;63554;48.940;12.050;2022-11-21T02:10:28;96419.88;;;3.45;88.73
75008;BME280;63554;48.940;12.050;2022-11-21T02:14:31;96421.09;;;3.42;88.50
75008;BME280;63554;48.940;12.050;2022-11-21T02:18:35;96413.91;;;3.43;88.29
75008;BME280;63554;48.940;12.050;2022-11-21T02:22:43;96415.75;;;3.42;88.59
75008;BME280;63554;48.940;12.050;2022-11-21T02:26:50;96408.09;;;3.39;88.49
75008;BME280;63554;48.940;12.050;2022-11-21T02:30:53;96407.53;;;3.44;87.86
75008;BME280;63554;48.940;12.050;2022-11-21T02:34:56;96400.53;;;3.43;87.99
75008;BME280;63554;48.940;12.050;2022-11-21T02:38:59;96404.22;;;3.42;88.03
75008;BME280;63554;48.940;12.050;2022-11-21T02:43:09;96407.28;;;3.39;87.86
75008;BME280;63554;48.940;12.050;2022-11-21T02:47:12;96403.81;;;3.45;87.13
75008;BME280;63554;48.940;12.050;2022-11-21T02:51:15;96397.66;;;3.44;87.56
75008;BME280;63554;48.940;12.050;2022-11-21T02:55:17;96388.81;;;3.44;87.45
75008;BME280;63554;48.940;12.050;2022-11-21T02:59:21;96399.31;;;3.45;87.06
75008;BME280;63554;48.940;12.050;2022-11-21T03:03:24;96388.19;;;3.42;87.14
75008;BME280;63554;48.940;12.050;2022-11-21T03:07:27;96384.88;;;3.40;86.86
75008;BME280;63554;48.940;12.050;2022-11-21T03:11:30;96387.78;;;3.45;87.02
75008;BME280;63554;48.940;12.050;2022-11-21T03:15:34;96390.88;;;3.42;87.20
75008;BME280;63554;48.940;12.050;2022-11-21T03:19:37;96385.50;;;3.42;87.27
75008;BME280;63554;48.940;12.050;2022-11-21T03:23:40;96393.91;;;3.39;87.38
75008;BME280;63554;48.940;12.050;2022-11-21T03:27:42;96376.69;;;3.41;86.42
75008;BME280;63554;48.940;12.050;2022-11-21T03:31:46;96374.00;;;3.41;86.28
75008;BME280;63554;48.940;12.050;2022-11-21T03:35:49;96369.84;;;3.39;86.71
75008;BME280;63554;48.940;12.050;2022-11-21T03:39:52;96364.50;;;3.39;86.83
75008;BME280;63554;48.940;12.050;2022-11-21T03:43:55;96366.97;;;3.33;87.09
75008;BME280;63554;48.940;12.050;2022-11-21T03:47:59;96370.84;;;3.31;86.87
75008;BME280;63554;48.940;12.050;2022-11-21T03:52:01;96358.06;;;3.26;87.16
75008;BME280;63554;48.940;12.050;2022-11-21T03:56:04;96357.66;;;3.23;87.34
75008;BME280;63554;48.940;12.050;2022-11-21T04:00:08;96365.03;;;3.21;87.24
75008;BME280;63554;48.940;12.050;2022-11-21T04:04:12;96352.66;;;3.13;87.65
75008;BME280;63554;48.940;12.050;2022-11-21T04:08:15;96353.06;;;3.10;87.40
75008;BME280;63554;48.940;12.050;2022-11-21T04:12:18;96357.19;;;3.12;87.75
75008;BME280;63554;48.940;12.050;2022-11-21T04:16:21;96357.19;;;3.12;87.80
75008;BME280;63554;48.940;12.050;2022-11-21T04:20:25;96346.06;;;3.09;87.95
75008;BME280;63554;48.940;12.050;2022-11-21T04:24:28;96351.84;;;3.12;88.20
75008;BME280;63554;48.940;12.050;2022-11-21T04:28:31;96345.47;;;3.13;88.00
75008;BME280;63554;48.940;12.050;2022-11-21T04:32:34;96353.28;;;3.15;87.81
75008;BME280;63554;48.940;12.050;2022-11-21T04:36:38;96355.16;;;3.21;87.57
75008;BME280;63554;48.940;12.050;2022-11-21T04:40:42;96343.66;;;3.21;86.99
75008;BME280;63554;48.940;12.050;2022-11-21T04:44:45;96340.38;;;3.25;87.25
75008;BME280;63554;48.940;12.050;2022-11-21T04:48:48;96338.75;;;3.24;87.67
75008;BME280;63554;48.940;12.050;2022-11-21T04:52:53;96333.41;;;3.24;87.32
75008;BME280;63554;48.940;12.050;2022-11-21T04:56:56;96330.72;;;3.24;87.61
75008;BME280;63554;48.940;12.050;2022-11-21T05:01:04;96326.38;;;3.23;87.03
75008;BME280;63554;48.940;12.050;2022-11-21T05:05:08;96321.97;;;3.44;87.57
75008;BME280;63554;48.940;12.050;2022-11-21T05:09:12;96337.50;;;3.20;86.76
75008;BME280;63554;48.940;12.050;2022-11-21T05:13:14;96335.81;;;3.12;87.36
75008;BME280;63554;48.940;12.050;2022-11-21T05:17:23;96332.69;;;3.09;87.39
75008;BME280;63554;48.940;12.050;2022-11-21T05:21:26;96325.06;;;3.06;87.46
75008;BME280;63554;48.940;12.050;2022-11-21T05:25:30;96337.41;;;3.07;87.83
75008;BME280;63554;48.940;12.050;2022-11-21T05:29:33;96337.03;;;3.10;87.46
75008;BME280;63554;48.940;12.050;2022-11-21T05:33:36;96350.19;;;3.11;87.27
75008;BME280;63554;48.940;12.050;2022-11-21T05:37:39;96355.34;;;3.13;87.95
75008;BME280;63554;48.940;12.050;2022-11-21T05:41:43;96356.16;;;3.13;87.60
75008;BME280;63554;48.940;12.050;2022-11-21T05:45:47;96355.78;;;3.16;87.44
75008;BME280;63554;48.940;12.050;2022-11-21T05:49:50;96360.69;;;3.13;87.31
75008;BME280;63554;48.940;12.050;2022-11-21T05:53:53;96357.19;;;3.12;87.02
75008;BME280;63554;48.940;12.050;2022-11-21T05:57:58;96352.44;;;3.08;86.49
75008;BME280;63554;48.940;12.050;2022-11-21T06:02:01;96353.47;;;3.07;87.14
75008;BME280;63554;48.940;12.050;2022-11-21T06:06:21;96346.84;;;2.96;87.13
75008;BME280;63554;48.940;12.050;2022-11-21T06:10:25;96345.13;;;2.88;87.59
75008;BME280;63554;48.940;12.050;2022-11-21T06:14:29;96346.34;;;2.86;87.56
75008;BME280;63554;48.940;12.050;2022-11-21T06:18:33;96337.25;;;2.80;87.97
75008;BME280;63554;48.940;12.050;2022-11-21T06:22:36;96337.88;;;2.82;88.24
75008;BME280;63554;48.940;12.050;2022-11-21T06:26:39;96336.00;;;2.76;88.53
75008;BME280;63554;48.940;12.050;2022-11-21T06:30:43;96336.84;;;2.76;88.82
75008;BME280;63554;48.940;12.050;2022-11-21T06:34:46;96331.69;;;2.75;88.90
75008;BME280;63554;48.940;12.050;2022-11-21T06:38:51;96331.50;;;2.76;88.41
75008;BME280;63554;48.940;12.050;2022-11-21T06:42:55;96333.75;;;2.80;88.56
75008;BME280;63554;48.940;12.050;2022-11-21T06:46:59;96333.56;;;2.81;88.25
75008;BME280;63554;48.940;12.050;2022-11-21T06:51:03;96338.94;;;2.88;88.70
75008;BME280;63554;48.940;12.050;2022-11-21T06:55:08;96341.88;;;2.93;87.64
75008;BME280;63554;48.940;12.050;2022-11-21T06:59:10;96355.22;;;2.93;87.53
75008;BME280;63554;48.940;12.050;2022-11-21T07:03:15;96356.84;;;2.94;87.75
75008;BME280;63554;48.940;12.050;2022-11-21T07:07:17;96354.16;;;2.87;87.29
75008;BME280;63554;48.940;12.050;2022-11-21T07:11:20;96360.31;;;2.88;87.22
75008;BME280;63554;48.940;12.050;2022-11-21T07:15:25;96369.41;;;2.93;87.48
75008;BME280;63554;48.940;12.050;2022-11-21T07:19:29;96368.16;;;2.89;87.57
75008;BME280;63554;48.940;12.050;2022-11-21T07:23:33;96372.25;;;2.92;88.00
75008;BME280;63554;48.940;12.050;2022-11-21T07:27:35;96375.56;;;2.94;87.64
75008;BME280;63554;48.940;12.050;2022-11-21T07:31:38;96387.91;;;2.95;87.79
75008;BME280;63554;48.940;12.050;2022-11-21T07:35:42;96385.06;;;2.96;87.90
75008;BME280;63554;48.940;12.050;2022-11-21T07:39:46;96383.47;;;3.02;87.56
75008;BME280;63554;48.940;12.050;2022-11-21T07:43:48;96375.84;;;3.06;87.83
75008;BME280;63554;48.940;12.050;2022-11-21T07:47:56;96388.00;;;3.08;87.94
75008;BME280;63554;48.940;12.050;2022-11-21T07:52:01;96393.97;;;3.10;87.68
75008;BME280;63554;48.940;12.050;2022-11-21T07:56:04;96388.75;;;3.30;86.99
75008;BME280;63554;48.940;12.050;2022-11-21T08:00:10;96406.72;;;3.43;86.43
75008;BME280;63554;48.940;12.050;2022-11-21T08:04:14;96391.69;;;3.42;86.77
75008;BME280;63554;48.940;12.050;2022-11-21T08:08:18;96396.03;;;3.50;86.76
75008;BME280;63554;48.940;12.050;2022-11-21T08:12:21;96390.81;;;3.76;85.84
75008;BME280;63554;48.940;12.050;2022-11-21T08:16:24;96394.69;;;3.74;86.15
75008;BME280;63554;48.940;12.050;2022-11-21T08:20:28;96389.34;;;3.74;85.76
75008;BME280;63554;48.940;12.050;2022-11-21T08:24:32;96401.09;;;3.73;85.62
75008;BME280;63554;48.940;12.050;2022-11-21T08:28:35;96384.59;;;3.63;86.54
75008;BME280;63554;48.940;12.050;2022-11-21T08:32:38;96388.91;;;3.64;86.64
75008;BME280;63554;48.940;12.050;2022-11-21T08:36:41;96383.78;;;3.69;86.15
75008;BME280;63554;48.940;12.050;2022-11-21T08:40:45;96380.13;;;3.83;85.90
75008;BME280;63554;48.940;12.050;2022-11-21T08:44:47;96398.03;;;3.89;85.39
75008;BME280;63554;48.940;12.050;2022-11-21T08:48:50;96400.13;;;3.94;85.11
75008;BME280;63554;48.940;12.050;2022-11-21T08:52:58;96394.53;;;3.89;85.86
75008;BME280;63554;48.940;12.050;2022-11-21T08:57:02;96402.81;;;4.07;85.54
75008;BME280;63554;48.940;12.050;2022-11-21T09:01:05;96386.75;;;4.01;85.52
75008;BME280;63554;48.940;12.050;2022-11-21T09:05:08;96394.34;;;4.04;85.05
75008;BME280;63554;48.940;12.050;2022-11-21T09:09:12;96394.78;;;4.07;84.63
75008;BME280;63554;48.940;12.050;2022-11-21T09:13:16;96410.22;;;4.05;84.37
75008;BME280;63554;48.940;12.050;2022-11-21T09:17:19;96417.44;;;4.11;84.64
75008;BME280;63554;48.940;12.050;2022-11-21T09:21:39;96401.19;;;4.13;84.59
75008;BME280;63554;48.940;12.050;2022-11-21T09:25:42;96402.47;;;4.24;84.07
75008;BME280;63554;48.940;12.050;2022-11-21T09:29:48;96410.69;;;4.29;84.00
75008;BME280;63554;48.940;12.050;2022-11-21T09:33:54;96422.41;;;4.21;84.09
75008;BME280;63554;48.940;12.050;2022-11-21T09:37:58;96423.88;;;4.24;84.16
75008;BME280;63554;48.940;12.050;2022-11-21T09:42:27;96417.72;;;4.30;84.13
75008;BME280;63554;48.940;12.050;2022-11-21T09:46:41;96416.72;;;4.58;83.00
75008;BME280;63554;48.940;12.050;2022-11-21T09:50:49;96409.44;;;5.25;81.27
75008;BME280;63554;48.940;12.050;2022-11-21T09:54:58;96403.81;;;5.53;79.89
75008;BME280;63554;48.940;12.050;2022-11-21T09:59:11;96402.38;;;5.57;79.03
75008;BME280;63554;48.940;12.050;2022-11-21T10:03:21;96403.66;;;5.41;78.43
75008;BME280;63554;48.940;12.050;2022-11-21T10:07:28;96393.34;;;5.25;79.96
75008;BME280;63554;48.940;12.050;2022-11-21T10:11:40;96397.91;;;5.11;80.35
75008;BME280;63554;48.940;12.050;2022-11-21T10:16:02;96400.44;;;5.06;80.72
75008;BME280;63554;48.940;12.050;2022-11-21T10:20:21;96388.47;;;4.95;80.45
75008;BME280;63554;48.940;12.050;2022-11-21T10:24:43;96397.13;;;5.04;80.52
75008;BME280;63554;48.940;12.050;2022-11-21T10:28:51;96390.94;;;4.97;80.10
75008;BME280;63554;48.940;12.050;2022-11-21T10:33:01;96395.47;;;5.03;80.09
75008;BME280;63554;48.940;12.050;2022-11-21T10:37:12;96383.91;;;5.09;79.28
75008;BME280;63554;48.940;12.050;2022-11-21T10:41:19;96383.84;;;5.29;78.97
75008;BME280;63554;48.940;12.050;2022-11-21T10:45:25;96376.41;;;5.31;77.97
75008;BME280;63554;48.940;12.050;2022-11-21T10:49:29;96363.66;;;5.26;77.66
75008;BME280;63554;48.940;12.050;2022-11-21T10:53:36;96366.69;;;5.37;77.90
75008;BME280;63554;48.940;12.050;2022-11-21T10:57:56;96355.81;;;5.25;77.79
75008;BME280;63554;48.940;12.050;2022-11-21T11:02:00;96359.91;;;5.34;77.81
75008;BME280;63554;48.940;12.050;2022-11-21T11:06:03;96351.88;;;5.34;77.16
75008;BME280;63554;48.940;12.050;2022-11-21T11:10:21;96342.75;;;5.35;76.75
75008;BME280;63554;48.940;12.050;2022-11-21T11:14:30;96347.16;;;5.29;77.72
75008;BME280;63554;48.940;12.050;2022-11-21T11:18:36;96348.72;;;5.44;78.52
75008;BME280;63554;48.940;12.050;2022-11-21T11:22:40;96345.81;;;5.52;77.61
75008;BME280;63554;48.940;12.050;2022-11-21T11:26:51;96347.22;;;5.61;77.92
75008;BME280;63554;48.940;12.050;2022-11-21T11:30:54;96346.31;;;5.74;77.57
75008;BME280;63554;48.940;12.050;2022-11-21T11:35:02;96346.72;;;5.78;77.53
75008;BME280;63554;48.940;12.050;2022-11-21T11:39:15;96338.22;;;5.87;76.16
75008;BME280;63554;48.940;12.050;2022-11-21T11:43:28;96334.13;;;5.78;76.96
75008;BME280;63554;48.940;12.050;2022-11-21T11:47:57;96328.78;;;5.71;75.89
75008;BME280;63554;48.940;12.050;2022-11-21T11:52:02;96307.59;;;5.57;76.03
75008;BME280;63554;48.940;12.050;2022-11-21T11:56:11;96314.88;;;5.43;77.99
75008;BME280;63554;48.940;12.050;2022-11-21T12:00:37;96312.22;;;5.36;77.96
75008;BME280;63554;48.940;12.050;2022-11-21T12:04:44;96310.38;;;5.37;78.39
75008;BME280;63554;48.940;12.050;2022-11-21T12:08:52;96299.63;;;5.37;78.33
75008;BME280;63554;48.940;12.050;2022-11-21T12:13:08;96302.50;;;5.42;77.34
75008;BME280;63554;48.940;12.050;2022-11-21T12:17:18;96297.75;;;5.44;78.03
75008;BME280;63554;48.940;12.050;2022-11-21T12:21:23;96296.28;;;5.48;77.97
75008;BME280;63554;48.940;12.050;2022-11-21T12:25:29;96290.13;;;5.41;79.13
75008;BME280;63554;48.940;12.050;2022-11-21T12:29:41;96302.97;;;5.32;79.97
75008;BME280;63554;48.940;12.050;2022-11-21T12:34:00;96298.84;;;5.29;79.96
75008;BME280;63554;48.940;12.050;2022-11-21T12:38:14;96291.88;;;5.15;80.59
75008;BME280;63554;48.940;12.050;2022-11-21T12:42:26;96289.88;;;4.97;78.38
75008;BME280;63554;48.940;12.050;2022-11-21T12:46:50;96290.78;;;4.31;82.36
75008;BME280;63554;48.940;12.050;2022-11-21T12:51:12;96298.63;;;4.06;84.11
75008;BME280;63554;48.940;12.050;2022-11-21T12:55:35;96290.38;;;3.94;83.32
75008;BME280;63554;48.940;12.050;2022-11-21T12:59:56;96276.78;;;4.09;79.63
75008;BME280;63554;48.940;12.050;2022-11-21T13:04:08;96257.63;;;4.45;78.23
75008;BME280;63554;48.940;12.050;2022-11-21T13:08:18;96260.19;;;4.92;78.43
75008;BME280;63554;48.940;12.050;2022-11-21T13:12:32;96247.97;;;5.09;78.80
75008;BME280;63554;48.940;12.050;2022-11-21T13:16:39;96233.44;;;6.69;72.40
75008;BME280;63554;48.940;12.050;2022-11-21T13:20:49;96228.34;;;7.35;69.51
75008;BME280;63554;48.940;12.050;2022-11-21T13:24:57;96219.69;;;7.15;70.03
75008;BME280;63554;48.940;12.050;2022-11-21T13:29:06;96216.00;;;8.00;67.93
75008;BME280;63554;48.940;12.050;2022-11-21T13:33:46;96219.78;;;8.22;67.24
75008;BME280;63554;48.940;12.050;2022-11-21T13:37:59;96210.31;;;8.90;63.85
75008;BME280;63554;48.940;12.050;2022-11-21T13:42:11;96208.75;;;8.95;62.24
75008;BME280;63554;48.940;12.050;2022-11-21T13:47:00;96196.94;;;8.60;64.54
75008;BME280;63554;48.940;12.050;2022-11-21T13:55:46;96193.41;;;8.12;66.50
75008;BME280;63554;48.940;12.050;2022-11-21T14:00:23;96192.25;;;8.67;62.96
75008;BME280;63554;48.940;12.050;2022-11-21T14:04:46;96174.72;;;8.41;65.13
75008;BME280;63554;48.940;12.050;2022-11-21T14:09:21;96178.19;;;8.77;65.14
75008;BME280;63554;48.940;12.050;2022-11-21T14:13:27;96190.88;;;9.46;61.08
75008;BME280;63554;48.940;12.050;2022-11-21T14:17:42;96184.47;;;9.35;61.01
75008;BME280;63554;48.940;12.050;2022-11-21T14:21:47;96180.53;;;8.74;63.78
75008;BME280;63554;48.940;12.050;2022-11-21T14:25:53;96168.28;;;7.77;66.44
75008;BME280;63554;48.940;12.050;2022-11-21T14:30:01;96167.69;;;7.63;67.69
75008;BME280;63554;48.940;12.050;2022-11-21T14:34:08;96164.41;;;7.61;67.49
75008;BME280;63554;48.940;12.050;2022-11-21T14:38:11;96152.03;;;8.07;67.02
75008;BME280;63554;48.940;12.050;2022-11-21T14:42:19;96160.03;;;8.61;63.81
75008;BME280;63554;48.940;12.050;2022-11-21T14:46:23;96170.34;;;8.52;63.97
75008;BME280;63554;48.940;12.050;2022-11-21T14:50:30;96171.50;;;8.21;64.99
75008;BME280;63554;48.940;12.050;2022-11-21T14:54:39;96168.88;;;7.79;65.96
75008;BME280;63554;48.940;12.050;2022-11-21T14:59:12;96150.19;;;7.42;67.33
75008;BME280;63554;48.940;12.050;2022-11-21T15:03:19;96158.75;;;7.20;67.80
75008;BME280;63554;48.940;12.050;2022-11-21T15:07:25;96159.34;;;6.92;69.88
75008;BME280;63554;48.940;12.050;2022-11-21T15:11:37;96148.22;;;6.70;70.86
75008;BME280;63554;48.940;12.050;2022-11-21T15:15:42;96147.53;;;6.56;71.85
75008;BME280;63554;48.940;12.050;2022-11-21T15:20:03;96137.44;;;6.33;73.16
75008;BME280;63554;48.940;12.050;2022-11-21T15:24:18;96121.16;;;6.09;74.23
75008;BME280;63554;48.940;12.050;2022-11-21T15:28:29;96113.03;;;5.72;75.54
75008;BME280;63554;48.940;12.050;2022-11-21T15:32:32;96105.72;;;5.29;75.80
75008;BME280;63554;48.940;12.050;2022-11-21T15:36:35;96096.28;;;4.88;77.19
75008;BME280;63554;48.940;12.050;2022-11-21T15:40:39;96091.25;;;4.67;77.96
75008;BME280;63554;48.940;12.050;2022-11-21T15:44:56;96073.81;;;4.51;78.80
75008;BME280;63554;48.940;12.050;2022-11-21T15:49:00;96072.66;;;4.33;78.50
75008;BME280;63554;48.940;12.050;2022-11-21T15:53:23;96049.28;;;4.02;80.26
75008;BME280;63554;48.940;12.050;2022-11-21T15:57:27;96045.81;;;3.82;80.55
75008;BME280;63554;48.940;12.050;2022-11-21T16:01:30;96048.91;;;3.85;80.35
75008;BME280;63554;48.940;12.050;2022-11-21T16:05:33;96050.19;;;3.56;81.30
75008;BME280;63554;48.940;12.050;2022-11-21T16:09:36;96031.50;;;3.29;81.90
75008;BME280;63554;48.940;12.050;2022-11-21T16:13:40;96040.94;;;3.25;82.58
75008;BME280;63554;48.940;12.050;2022-11-21T16:17:43;96061.94;;;3.28;83.04
75008;BME280;63554;48.940;12.050;2022-11-21T16:21:47;96057.81;;;3.19;82.51
75008;BME280;63554;48.940;12.050;2022-11-21T16:25:54;96050.63;;;3.20;82.72
75008;BME280;63554;48.940;12.050;2022-11-21T16:29:58;96037.03;;;3.48;91.47
75008;BME280;63554;48.940;12.050;2022-11-21T16:34:01;96026.47;;;4.77;94.43
75008;BME280;63554;48.940;12.050;2022-11-21T16:38:07;96025.19;;;5.36;94.70
75008;BME280;63554;48.940;12.050;2022-11-21T16:42:10;96030.63;;;4.72;90.10
75008;BME280;63554;48.940;12.050;2022-11-21T16:46:15;96031.16;;;3.97;79.90
75008;BME280;63554;48.940;12.050;2022-11-21T16:50:19;96007.22;;;3.24;81.10
75008;BME280;63554;48.940;12.050;2022-11-21T16:54:22;96011.75;;;3.04;81.48
75008;BME280;63554;48.940;12.050;2022-11-21T16:58:26;96014.81;;;2.74;82.36
75008;BME280;63554;48.940;12.050;2022-11-21T17:02:30;96013.97;;;2.60;82.90
75008;BME280;63554;48.940;12.050;2022-11-21T17:06:33;96010.88;;;2.50;82.86
75008;BME280;63554;48.940;12.050;2022-11-21T17:10:38;95996.66;;;2.29;83.69
75008;BME280;63554;48.940;12.050;2022-11-21T17:14:41;96013.09;;;2.26;84.07
75008;BME280;63554;48.940;12.050;2022-11-21T17:18:45;96001.34;;;2.21;84.24
75008;BME280;63554;48.940;12.050;2022-11-21T17:22:49;95992.31;;;2.15;84.22
75008;BME280;63554;48.940;12.050;2022-11-21T17:26:51;95983.28;;;2.16;84.01
75008;BME280;63554;48.940;12.050;2022-11-21T17:30:54;95975.47;;;2.14;83.85
75008;BME280;63554;48.940;12.050;2022-11-21T17:34:58;95974.41;;;2.02;84.21
75008;BME280;63554;48.940;12.050;2022-11-21T17:39:01;95972.94;;;1.93;84.43
75008;BME280;63554;48.940;12.050;2022-11-21T17:43:04;95966.44;;;2.15;91.01
75008;BME280;63554;48.940;12.050;2022-11-21T17:47:07;95963.56;;;2.10;87.35
75008;BME280;63554;48.940;12.050;2022-11-21T17:51:12;95952.41;;;1.93;84.67
75008;BME280;63554;48.940;12.050;2022-11-21T17:55:15;95951.16;;;1.83;84.45
75008;BME280;63554;48.940;12.050;2022-11-21T17:59:18;95934.28;;;1.69;84.58
75008;BME280;63554;48.940;12.050;2022-11-21T18:03:21;95925.88;;;1.65;85.42
75008;BME280;63554;48.940;12.050;2022-11-21T18:07:25;95914.31;;;1.51;85.42
75008;BME280;63554;48.940;12.050;2022-11-21T18:11:32;95904.66;;;1.44;85.68
75008;BME280;63554;48.940;12.050;2022-11-21T18:15:40;95902.16;;;1.35;85.92
75008;BME280;63554;48.940;12.050;2022-11-21T18:19:43;95896.41;;;1.32;85.94
75008;BME280;63554;48.940;12.050;2022-11-21T18:23:50;95896.97;;;1.27;85.85
75008;BME280;63554;48.940;12.050;2022-11-21T18:27:54;95897.31;;;1.17;86.09
75008;BME280;63554;48.940;12.050;2022-11-21T18:31:57;95907.16;;;1.17;86.09
75008;BME280;63554;48.940;12.050;2022-11-21T18:36:00;95899.78;;;1.12;86.15
75008;BME280;63554;48.940;12.050;2022-11-21T18:40:05;95887.69;;;1.10;86.07
75008;BME280;63554;48.940;12.050;2022-11-21T18:44:08;95889.13;;;1.12;85.99
75008;BME280;63554;48.940;12.050;2022-11-21T18:48:22;95896.69;;;1.09;86.48
75008;BME280;63554;48.940;12.050;2022-11-21T18:52:24;95874.72;;;1.00;86.23
75008;BME280;63554;48.940;12.050;2022-11-21T18:56:34;95868.97;;;0.96;86.20
75008;BME280;63554;48.940;12.050;2022-11-21T19:00:37;95861.78;;;0.97;86.53
75008;BME280;63554;48.940;12.050;2022-11-21T19:04:40;95861.59;;;0.98;86.82
75008;BME280;63554;48.940;12.050;2022-11-21T19:08:43;95849.69;;;0.94;86.71
75008;BME280;63554;48.940;12.050;2022-11-21T19:12:47;95849.41;;;0.83;86.85
75008;BME280;63554;48.940;12.050;2022-11-21T19:16:54;95850.19;;;0.76;87.21
75008;BME280;63554;48.940;12.050;2022-11-21T19:20:59;95843.41;;;0.74;86.93
75008;BME280;63554;48.940;12.050;2022-11-21T19:25:02;95844.81;;;0.70;87.55
75008;BME280;63554;48.940;12.050;2022-11-21T19:29:07;95824.28;;;0.57;88.58
75008;BME280;63554;48.940;12.050;2022-11-21T19:33:17;95826.50;;;0.53;89.60
75008;BME280;63554;48.940;12.050;2022-11-21T19:37:20;95816.63;;;0.47;90.32
75008;BME280;63554;48.940;12.050;2022-11-21T19:41:24;95823.22;;;0.51;91.35
75008;BME280;63554;48.940;12.050;2022-11-21T19:45:31;95811.94;;;0.49;91.07
75008;BME280;63554;48.940;12.050;2022-11-21T19:49:34;95826.88;;;0.50;91.32
75008;BME280;63554;48.940;12.050;2022-11-21T19:53:37;95807.44;;;0.50;91.21
75008;BME280;63554;48.940;12.050;2022-11-21T19:57:40;95800.06;;;0.45;91.56
75008;BME280;63554;48.940;12.050;2022-11-21T20:01:44;95796.16;;;0.48;91.72
75008;BME280;63554;48.940;12.050;2022-11-21T20:06:00;95780.53;;;0.38;92.09
75008;BME280;63554;48.940;12.050;2022-11-21T20:10:03;95778.94;;;0.44;92.21
75008;BME280;63554;48.940;12.050;2022-11-21T20:14:06;95770.78;;;0.45;92.45
75008;BME280;63554;48.940;12.050;2022-11-21T20:18:10;95760.31;;;0.44;92.00
75008;BME280;63554;48.940;12.050;2022-11-21T20:22:13;95753.75;;;0.39;92.45
75008;BME280;63554;48.940;12.050;2022-11-21T20:26:18;95734.69;;;0.36;92.46
75008;BME280;63554;48.940;12.050;2022-11-21T20:30:20;95721.41;;;0.43;92.48
75008;BME280;63554;48.940;12.050;2022-11-21T20:34:26;95724.50;;;0.46;92.44
75008;BME280;63554;48.940;12.050;2022-11-21T20:38:30;95705.44;;;0.43;92.68
75008;BME280;63554;48.940;12.050;2022-11-21T20:42:32;95707.53;;;0.47;92.70
75008;BME280;63554;48.940;12.050;2022-11-21T20:46:37;95711.56;;;0.43;92.67
75008;BME280;63554;48.940;12.050;2022-11-21T20:50:49;95706.47;;;0.42;92.64
75008;BME280;63554;48.940;12.050;2022-11-21T20:55:12;95698.50;;;0.42;92.73
75008;BME280;63554;48.940;12.050;2022-11-21T20:59:15;95698.69;;;0.40;92.79
75008;BME280;63554;48.940;12.050;2022-11-21T21:03:17;95699.06;;;0.37;92.80
75008;BME280;63554;48.940;12.050;2022-11-21T21:07:21;95705.63;;;0.34;92.85
75008;BME280;63554;48.940;12.050;2022-11-21T21:11:24;95688.78;;;0.27;92.67
75008;BME280;63554;48.940;12.050;2022-11-21T21:15:47;95686.72;;;0.23;92.53
75008;BME280;63554;48.940;12.050;2022-11-21T21:19:50;95694.72;;;0.29;92.81
75008;BME280;63554;48.940;12.050;2022-11-21T21:23:56;95673.03;;;0.26;92.74
75008;BME280;63554;48.940;12.050;2022-11-21T21:27:59;95669.16;;;0.28;92.82
75008;BME280;63554;48.940;12.050;2022-11-21T21:32:01;95657.47;;;0.29;93.24
75008;BME280;63554;48.940;12.050;2022-11-21T21:36:06;95649.94;;;0.33;93.20
75008;BME280;63554;48.940;12.050;2022-11-21T21:40:11;95641.38;;;0.37;93.16
75008;BME280;63554;48.940;12.050;2022-11-21T21:44:14;95673.94;;;0.46;93.05
75008;BME280;63554;48.940;12.050;2022-11-21T21:48:17;95666.81;;;0.53;92.78